sensor_id;sensor_type;location;lat;lon;timestamp;P1;durP1;ratioP1;P2;durP2;ratioP2
8353;SDS011;4656;48.090;11.498;2024-01-16T00:02:00;3.08;;;2.38;;
8353;SDS011;4656;48.090;11.498;2024-01-16T00:04:02;5.18;;;3.33;;
8353;SDS011;4656;48.090;11.498;2024-01-16T00:06:04;4.35;;;2.80;;
8353;SDS011;4656;48.090;11.498;2024-01-16T00:08:06;4.40;;;2.92;;
8353;SDS011;4656;48.090;11.498;2024-01-16T00:10:10;4.53;;;3.30;;
8353;SDS011;4656;48.090;11.498;2024-01-16T00:12:12;4.63;;;3.50;;
8353;SDS011;4656;48.090;11.498;2024-01-16T00:14:15;4.65;;;2.90;;
8353;SDS011;4656;48.090;11.498;2024-01-16T00:16:16;4.15;;;2.50;;
8353;SDS011;4656;48.090;11.498;2024-01-16T00:18:18;3.40;;;2.60;;
8353;SDS011;4656;48.090;11.498;2024-01-16T00:20:21;6.40;;;2.80;;
8353;SDS011;4656;48.090;11.498;2024-01-16T00:22:23;5.35;;;2.97;;
8353;SDS011;4656;48.090;11.498;2024-01-16T00:24:25;3.47;;;2.33;;
8353;SDS011;4656;48.090;11.498;2024-01-16T00:26:29;3.50;;;2.60;;
8353;SDS011;4656;48.090;11.498;2024-01-16T00:28:31;3.70;;;2.60;;
8353;SDS011;4656;48.090;11.498;2024-01-16T00:30:33;3.10;;;2.28;;
8353;SDS011;4656;48.090;11.498;2024-01-16T00:32:35;2.67;;;2.47;;
8353;SDS011;4656;48.090;11.498;2024-01-16T00:34:37;3.05;;;2.55;;
8353;SDS011;4656;48.090;11.498;2024-01-16T00:36:39;3.85;;;2.95;;
8353;SDS011;4656;48.090;11.498;2024-01-16T00:38:42;3.67;;;2.10;;
8353;SDS011;4656;48.090;11.498;2024-01-16T00:40:45;3.38;;;2.58;;
8353;SDS011;4656;48.090;11.498;2024-01-16T00:42:48;4.28;;;2.55;;
8353;SDS011;4656;48.090;11.498;2024-01-16T00:44:50;3.22;;;2.45;;
8353;SDS011;4656;48.090;11.498;2024-01-16T00:46:52;3.05;;;2.30;;
8353;SDS011;4656;48.090;11.498;2024-01-16T00:48:54;3.10;;;2.28;;
8353;SDS011;4656;48.090;11.498;2024-01-16T00:50:56;4.68;;;1.98;;
8353;SDS011;4656;48.090;11.498;2024-01-16T00:52:58;3.03;;;2.05;;
8353;SDS011;4656;48.090;11.498;2024-01-16T00:55:00;2.78;;;2.15;;
8353;SDS011;4656;48.090;11.498;2024-01-16T00:57:03;2.78;;;2.50;;
8353;SDS011;4656;48.090;11.498;2024-01-16T00:59:06;4.20;;;2.72;;
8353;SDS011;4656;48.090;11.498;2024-01-16T01:01:08;5.57;;;3.00;;
8353;SDS011;4656;48.090;11.498;2024-01-16T01:03:10;3.17;;;2.22;;
8353;SDS011;4656;48.090;11.498;2024-01-16T01:05:12;4.90;;;2.53;;
8353;SDS011;4656;48.090;11.498;2024-01-16T01:07:14;5.03;;;3.30;;
8353;SDS011;4656;48.090;11.498;2024-01-16T01:09:16;3.40;;;2.50;;
8353;SDS011;4656;48.090;11.498;2024-01-16T01:11:18;6.60;;;2.53;;
8353;SDS011;4656;48.090;11.498;2024-01-16T01:13:21;4.03;;;2.45;;
8353;SDS011;4656;48.090;11.498;2024-01-16T01:15:26;3.47;;;2.50;;
8353;SDS011;4656;48.090;11.498;2024-01-16T01:17:28;4.07;;;3.10;;
8353;SDS011;4656;48.090;11.498;2024-01-16T01:19:30;3.58;;;2.55;;
8353;SDS011;4656;48.090;11.498;2024-01-16T01:21:32;5.15;;;3.15;;
8353;SDS011;4656;48.090;11.498;2024-01-16T01:23:35;3.22;;;2.47;;
8353;SDS011;4656;48.090;11.498;2024-01-16T01:25:37;4.78;;;2.50;;
8353;SDS011;4656;48.090;11.498;2024-01-16T01:27:39;3.40;;;2.53;;
8353;SDS011;4656;48.090;11.498;2024-01-16T01:29:41;3.83;;;3.17;;
8353;SDS011;4656;48.090;11.498;2024-01-16T01:31:46;3.65;;;2.53;;
8353;SDS011;4656;48.090;11.498;2024-01-16T01:33:48;4.35;;;2.40;;
8353;SDS011;4656;48.090;11.498;2024-01-16T01:35:50;5.78;;;2.63;;
8353;SDS011;4656;48.090;11.498;2024-01-16T01:37:52;2.78;;;2.03;;
8353;SDS011;4656;48.090;11.498;2024-01-16T01:39:54;3.95;;;2.47;;
8353;SDS011;4656;48.090;11.498;2024-01-16T01:41:58;4.88;;;2.22;;
8353;SDS011;4656;48.090;11.498;2024-01-16T01:43:59;3.40;;;2.45;;
8353;SDS011;4656;48.090;11.498;2024-01-16T01:46:09;2.45;;;2.10;;
8353;SDS011;4656;48.090;11.498;2024-01-16T01:48:11;4.80;;;2.60;;
8353;SDS011;4656;48.090;11.498;2024-01-16T01:50:14;2.13;;;1.80;;
8353;SDS011;4656;48.090;11.498;2024-01-16T01:52:16;2.33;;;2.13;;
8353;SDS011;4656;48.090;11.498;2024-01-16T01:54:28;3.15;;;2.05;;
8353;SDS011;4656;48.090;11.498;2024-01-16T01:56:30;2.58;;;2.05;;
8353;SDS011;4656;48.090;11.498;2024-01-16T01:58:32;2.67;;;2.05;;
8353;SDS011;4656;48.090;11.498;2024-01-16T02:00:34;2.90;;;1.90;;
8353;SDS011;4656;48.090;11.498;2024-01-16T02:02:36;2.50;;;2.00;;
8353;SDS011;4656;48.090;11.498;2024-01-16T02:04:39;2.85;;;2.10;;
8353;SDS011;4656;48.090;11.498;2024-01-16T02:06:42;2.67;;;2.00;;
8353;SDS011;4656;48.090;11.498;2024-01-16T02:08:44;4.30;;;2.25;;
8353;SDS011;4656;48.090;11.498;2024-01-16T02:10:46;3.33;;;2.28;;
8353;SDS011;4656;48.090;11.498;2024-01-16T02:12:49;2.30;;;2.10;;
8353;SDS011;4656;48.090;11.498;2024-01-16T02:14:51;2.85;;;1.92;;
8353;SDS011;4656;48.090;11.498;2024-01-16T02:16:53;2.15;;;1.95;;
8353;SDS011;4656;48.090;11.498;2024-01-16T02:18:54;3.13;;;2.35;;
8353;SDS011;4656;48.090;11.498;2024-01-16T02:20:59;3.00;;;2.17;;
8353;SDS011;4656;48.090;11.498;2024-01-16T02:23:03;2.47;;;2.10;;
8353;SDS011;4656;48.090;11.498;2024-01-16T02:25:07;3.30;;;2.10;;
8353;SDS011;4656;48.090;11.498;2024-01-16T02:27:09;2.95;;;2.30;;
8353;SDS011;4656;48.090;11.498;2024-01-16T02:29:11;3.03;;;2.00;;
8353;SDS011;4656;48.090;11.498;2024-01-16T02:31:13;2.35;;;1.90;;
8353;SDS011;4656;48.090;11.498;2024-01-16T02:33:16;2.35;;;1.92;;
8353;SDS011;4656;48.090;11.498;2024-01-16T02:35:19;2.15;;;1.90;;
8353;SDS011;4656;48.090;11.498;2024-01-16T02:37:21;2.63;;;2.08;;
8353;SDS011;4656;48.090;11.498;2024-01-16T02:39:24;4.07;;;1.80;;
8353;SDS011;4656;48.090;11.498;2024-01-16T02:41:26;2.85;;;2.03;;
8353;SDS011;4656;48.090;11.498;2024-01-16T02:43:28;2.70;;;2.15;;
8353;SDS011;4656;48.090;11.498;2024-01-16T02:45:31;4.57;;;2.40;;
8353;SDS011;4656;48.090;11.498;2024-01-16T02:47:33;3.70;;;2.33;;
8353;SDS011;4656;48.090;11.498;2024-01-16T02:49:34;3.55;;;2.20;;
8353;SDS011;4656;48.090;11.498;2024-01-16T02:51:37;3.10;;;1.80;;
8353;SDS011;4656;48.090;11.498;2024-01-16T02:53:39;3.95;;;2.72;;
8353;SDS011;4656;48.090;11.498;2024-01-16T02:55:41;3.30;;;2.37;;
8353;SDS011;4656;48.090;11.498;2024-01-16T02:57:44;2.55;;;1.98;;
8353;SDS011;4656;48.090;11.498;2024-01-16T02:59:49;3.05;;;2.10;;
8353;SDS011;4656;48.090;11.498;2024-01-16T03:01:53;4.78;;;2.42;;
8353;SDS011;4656;48.090;11.498;2024-01-16T03:03:55;2.45;;;1.98;;
8353;SDS011;4656;48.090;11.498;2024-01-16T03:05:57;3.08;;;2.20;;
8353;SDS011;4656;48.090;11.498;2024-01-16T03:07:59;4.10;;;2.50;;
8353;SDS011;4656;48.090;11.498;2024-01-16T03:10:03;2.95;;;2.42;;
8353;SDS011;4656;48.090;11.498;2024-01-16T03:12:07;3.30;;;2.20;;
8353;SDS011;4656;48.090;11.498;2024-01-16T03:14:11;3.85;;;2.40;;
8353;SDS011;4656;48.090;11.498;2024-01-16T03:16:13;3.72;;;2.40;;
8353;SDS011;4656;48.090;11.498;2024-01-16T03:18:16;4.97;;;2.60;;
8353;SDS011;4656;48.090;11.498;2024-01-16T03:20:18;5.38;;;2.40;;
8353;SDS011;4656;48.090;11.498;2024-01-16T03:22:20;3.15;;;2.40;;
8353;SDS011;4656;48.090;11.498;2024-01-16T03:24:23;4.13;;;2.45;;
8353;SDS011;4656;48.090;11.498;2024-01-16T03:26:26;3.70;;;2.42;;
8353;SDS011;4656;48.090;11.498;2024-01-16T03:28:29;2.90;;;2.33;;
8353;SDS011;4656;48.090;11.498;2024-01-16T03:30:33;3.45;;;2.47;;
8353;SDS011;4656;48.090;11.498;2024-01-16T03:32:36;2.92;;;2.28;;
8353;SDS011;4656;48.090;11.498;2024-01-16T03:34:37;3.42;;;2.47;;
8353;SDS011;4656;48.090;11.498;2024-01-16T03:36:40;2.93;;;2.37;;
8353;SDS011;4656;48.090;11.498;2024-01-16T03:38:42;2.70;;;2.50;;
8353;SDS011;4656;48.090;11.498;2024-01-16T03:40:44;2.88;;;2.55;;
8353;SDS011;4656;48.090;11.498;2024-01-16T03:42:46;3.03;;;1.90;;
8353;SDS011;4656;48.090;11.498;2024-01-16T03:44:49;5.50;;;2.33;;
8353;SDS011;4656;48.090;11.498;2024-01-16T03:46:52;3.90;;;2.35;;
8353;SDS011;4656;48.090;11.498;2024-01-16T03:48:55;3.65;;;2.25;;
8353;SDS011;4656;48.090;11.498;2024-01-16T03:50:57;3.88;;;2.45;;
8353;SDS011;4656;48.090;11.498;2024-01-16T03:52:59;3.90;;;2.25;;
8353;SDS011;4656;48.090;11.498;2024-01-16T03:55:00;4.55;;;2.58;;
8353;SDS011;4656;48.090;11.498;2024-01-16T03:57:04;3.70;;;2.40;;
8353;SDS011;4656;48.090;11.498;2024-01-16T03:59:06;4.10;;;2.55;;
8353;SDS011;4656;48.090;11.498;2024-01-16T04:01:08;3.22;;;2.40;;
8353;SDS011;4656;48.090;11.498;2024-01-16T04:03:12;3.38;;;2.33;;
8353;SDS011;4656;48.090;11.498;2024-01-16T04:05:14;3.67;;;2.50;;
8353;SDS011;4656;48.090;11.498;2024-01-16T04:07:15;2.67;;;2.20;;
8353;SDS011;4656;48.090;11.498;2024-01-16T04:09:17;3.20;;;2.25;;
8353;SDS011;4656;48.090;11.498;2024-01-16T04:11:20;3.25;;;2.30;;
8353;SDS011;4656;48.090;11.498;2024-01-16T04:13:22;4.72;;;2.47;;
8353;SDS011;4656;48.090;11.498;2024-01-16T04:15:24;3.20;;;1.98;;
8353;SDS011;4656;48.090;11.498;2024-01-16T04:17:26;4.85;;;2.58;;
8353;SDS011;4656;48.090;11.498;2024-01-16T04:19:28;3.35;;;2.42;;
8353;SDS011;4656;48.090;11.498;2024-01-16T04:21:33;2.30;;;1.85;;
8353;SDS011;4656;48.090;11.498;2024-01-16T04:23:35;2.85;;;2.30;;
8353;SDS011;4656;48.090;11.498;2024-01-16T04:25:37;2.60;;;2.33;;
8353;SDS011;4656;48.090;11.498;2024-01-16T04:27:39;3.22;;;2.33;;
8353;SDS011;4656;48.090;11.498;2024-01-16T04:29:43;5.55;;;2.10;;
8353;SDS011;4656;48.090;11.498;2024-01-16T04:31:45;4.38;;;2.40;;
8353;SDS011;4656;48.090;11.498;2024-01-16T04:33:48;3.17;;;1.90;;
8353;SDS011;4656;48.090;11.498;2024-01-16T04:35:51;2.97;;;2.07;;
8353;SDS011;4656;48.090;11.498;2024-01-16T04:37:53;2.83;;;2.20;;
8353;SDS011;4656;48.090;11.498;2024-01-16T04:39:56;2.95;;;1.92;;
8353;SDS011;4656;48.090;11.498;2024-01-16T04:41:59;2.50;;;2.00;;
8353;SDS011;4656;48.090;11.498;2024-01-16T04:44:01;2.80;;;1.88;;
8353;SDS011;4656;48.090;11.498;2024-01-16T04:46:03;3.20;;;2.20;;
8353;SDS011;4656;48.090;11.498;2024-01-16T04:48:05;2.45;;;1.77;;
8353;SDS011;4656;48.090;11.498;2024-01-16T04:50:08;2.58;;;2.05;;
8353;SDS011;4656;48.090;11.498;2024-01-16T04:52:12;2.20;;;1.90;;
8353;SDS011;4656;48.090;11.498;2024-01-16T04:54:14;2.25;;;2.05;;
8353;SDS011;4656;48.090;11.498;2024-01-16T04:56:15;5.68;;;2.20;;
8353;SDS011;4656;48.090;11.498;2024-01-16T04:58:17;2.40;;;1.90;;
8353;SDS011;4656;48.090;11.498;2024-01-16T05:00:19;3.17;;;2.08;;
8353;SDS011;4656;48.090;11.498;2024-01-16T05:02:22;2.27;;;1.50;;
8353;SDS011;4656;48.090;11.498;2024-01-16T05:04:24;3.58;;;1.65;;
8353;SDS011;4656;48.090;11.498;2024-01-16T05:06:26;2.40;;;2.13;;
8353;SDS011;4656;48.090;11.498;2024-01-16T05:08:29;3.88;;;1.95;;
8353;SDS011;4656;48.090;11.498;2024-01-16T05:10:31;3.63;;;2.47;;
8353;SDS011;4656;48.090;11.498;2024-01-16T05:12:34;2.75;;;2.15;;
8353;SDS011;4656;48.090;11.498;2024-01-16T05:14:36;4.15;;;1.95;;
8353;SDS011;4656;48.090;11.498;2024-01-16T05:16:38;5.47;;;2.65;;
8353;SDS011;4656;48.090;11.498;2024-01-16T05:18:41;5.35;;;2.53;;
8353;SDS011;4656;48.090;11.498;2024-01-16T05:20:44;3.00;;;2.22;;
8353;SDS011;4656;48.090;11.498;2024-01-16T05:22:47;3.45;;;1.85;;
8353;SDS011;4656;48.090;11.498;2024-01-16T05:24:50;3.87;;;2.70;;
8353;SDS011;4656;48.090;11.498;2024-01-16T05:26:51;5.35;;;3.00;;
8353;SDS011;4656;48.090;11.498;2024-01-16T05:28:53;4.40;;;2.72;;
8353;SDS011;4656;48.090;11.498;2024-01-16T05:30:55;6.05;;;3.08;;
8353;SDS011;4656;48.090;11.498;2024-01-16T05:32:58;5.65;;;3.03;;
8353;SDS011;4656;48.090;11.498;2024-01-16T05:35:01;12.67;;;5.40;;
8353;SDS011;4656;48.090;11.498;2024-01-16T05:37:03;9.45;;;5.53;;
8353;SDS011;4656;48.090;11.498;2024-01-16T05:39:04;9.23;;;5.57;;
8353;SDS011;4656;48.090;11.498;2024-01-16T05:41:09;8.30;;;4.83;;
8353;SDS011;4656;48.090;11.498;2024-01-16T05:43:11;7.45;;;3.83;;
8353;SDS011;4656;48.090;11.498;2024-01-16T05:45:14;8.43;;;3.92;;
8353;SDS011;4656;48.090;11.498;2024-01-16T05:47:16;7.03;;;4.30;;
8353;SDS011;4656;48.090;11.498;2024-01-16T05:49:18;4.07;;;3.15;;
8353;SDS011;4656;48.090;11.498;2024-01-16T05:51:19;7.90;;;3.47;;
8353;SDS011;4656;48.090;11.498;2024-01-16T05:53:22;8.77;;;2.83;;
8353;SDS011;4656;48.090;11.498;2024-01-16T05:55:24;8.05;;;4.07;;
8353;SDS011;4656;48.090;11.498;2024-01-16T05:57:27;8.13;;;3.88;;
8353;SDS011;4656;48.090;11.498;2024-01-16T05:59:31;6.70;;;3.72;;
8353;SDS011;4656;48.090;11.498;2024-01-16T06:01:33;5.32;;;3.45;;
8353;SDS011;4656;48.090;11.498;2024-01-16T06:03:35;6.15;;;3.97;;
8353;SDS011;4656;48.090;11.498;2024-01-16T06:05:37;5.28;;;3.80;;
8353;SDS011;4656;48.090;11.498;2024-01-16T06:07:39;5.78;;;2.72;;
8353;SDS011;4656;48.090;11.498;2024-01-16T06:09:41;5.47;;;3.37;;
8353;SDS011;4656;48.090;11.498;2024-01-16T06:11:42;5.95;;;3.08;;
8353;SDS011;4656;48.090;11.498;2024-01-16T06:13:45;6.15;;;3.20;;
8353;SDS011;4656;48.090;11.498;2024-01-16T06:15:48;5.00;;;2.60;;
8353;SDS011;4656;48.090;11.498;2024-01-16T06:17:50;6.18;;;3.22;;
8353;SDS011;4656;48.090;11.498;2024-01-16T06:19:52;5.53;;;2.72;;
8353;SDS011;4656;48.090;11.498;2024-01-16T06:21:54;3.53;;;2.53;;
8353;SDS011;4656;48.090;11.498;2024-01-16T06:23:56;7.80;;;4.50;;
8353;SDS011;4656;48.090;11.498;2024-01-16T06:25:59;6.82;;;3.47;;
8353;SDS011;4656;48.090;11.498;2024-01-16T06:28:02;10.88;;;5.10;;
8353;SDS011;4656;48.090;11.498;2024-01-16T06:30:07;9.40;;;4.05;;
8353;SDS011;4656;48.090;11.498;2024-01-16T06:32:10;7.88;;;3.88;;
8353;SDS011;4656;48.090;11.498;2024-01-16T06:34:12;11.68;;;4.75;;
8353;SDS011;4656;48.090;11.498;2024-01-16T06:36:14;5.90;;;3.50;;
8353;SDS011;4656;48.090;11.498;2024-01-16T06:38:16;5.85;;;2.60;;
8353;SDS011;4656;48.090;11.498;2024-01-16T06:40:18;6.68;;;2.95;;
8353;SDS011;4656;48.090;11.498;2024-01-16T06:42:21;9.27;;;4.05;;
8353;SDS011;4656;48.090;11.498;2024-01-16T06:44:22;8.37;;;4.40;;
8353;SDS011;4656;48.090;11.498;2024-01-16T06:46:25;5.63;;;3.97;;
8353;SDS011;4656;48.090;11.498;2024-01-16T06:48:27;9.30;;;3.67;;
8353;SDS011;4656;48.090;11.498;2024-01-16T06:50:30;4.38;;;2.83;;
8353;SDS011;4656;48.090;11.498;2024-01-16T06:52:32;7.53;;;4.47;;
8353;SDS011;4656;48.090;11.498;2024-01-16T06:54:34;6.53;;;3.20;;
8353;SDS011;4656;48.090;11.498;2024-01-16T06:56:36;6.53;;;3.13;;
8353;SDS011;4656;48.090;11.498;2024-01-16T06:58:38;8.98;;;4.50;;
8353;SDS011;4656;48.090;11.498;2024-01-16T07:00:40;7.45;;;2.83;;
8353;SDS011;4656;48.090;11.498;2024-01-16T07:02:44;5.15;;;2.60;;
8353;SDS011;4656;48.090;11.498;2024-01-16T07:04:46;3.97;;;1.95;;
8353;SDS011;4656;48.090;11.498;2024-01-16T07:06:48;13.45;;;6.80;;
8353;SDS011;4656;48.090;11.498;2024-01-16T07:08:50;8.80;;;4.30;;
8353;SDS011;4656;48.090;11.498;2024-01-16T07:10:53;10.27;;;5.07;;
8353;SDS011;4656;48.090;11.498;2024-01-16T07:12:54;9.00;;;5.00;;
8353;SDS011;4656;48.090;11.498;2024-01-16T07:14:56;3.33;;;2.35;;
8353;SDS011;4656;48.090;11.498;2024-01-16T07:16:59;5.00;;;2.88;;
8353;SDS011;4656;48.090;11.498;2024-01-16T07:19:02;3.08;;;2.10;;
8353;SDS011;4656;48.090;11.498;2024-01-16T07:21:04;5.40;;;2.88;;
8353;SDS011;4656;48.090;11.498;2024-01-16T07:23:06;3.60;;;2.50;;
8353;SDS011;4656;48.090;11.498;2024-01-16T07:25:08;3.58;;;1.92;;
8353;SDS011;4656;48.090;11.498;2024-01-16T07:27:11;6.35;;;3.17;;
8353;SDS011;4656;48.090;11.498;2024-01-16T07:29:12;6.38;;;3.67;;
8353;SDS011;4656;48.090;11.498;2024-01-16T07:31:14;13.55;;;6.22;;
8353;SDS011;4656;48.090;11.498;2024-01-16T07:33:17;18.52;;;7.40;;
8353;SDS011;4656;48.090;11.498;2024-01-16T07:35:20;6.30;;;3.35;;
8353;SDS011;4656;48.090;11.498;2024-01-16T07:37:22;8.52;;;6.40;;
8353;SDS011;4656;48.090;11.498;2024-01-16T07:39:24;4.77;;;3.57;;
8353;SDS011;4656;48.090;11.498;2024-01-16T07:41:27;4.65;;;3.45;;
8353;SDS011;4656;48.090;11.498;2024-01-16T07:43:29;5.38;;;3.28;;
8353;SDS011;4656;48.090;11.498;2024-01-16T07:45:31;5.57;;;2.92;;
8353;SDS011;4656;48.090;11.498;2024-01-16T07:47:33;4.05;;;2.97;;
8353;SDS011;4656;48.090;11.498;2024-01-16T07:49:36;5.18;;;3.20;;
8353;SDS011;4656;48.090;11.498;2024-01-16T07:51:40;2.97;;;2.33;;
8353;SDS011;4656;48.090;11.498;2024-01-16T07:53:42;2.97;;;2.30;;
8353;SDS011;4656;48.090;11.498;2024-01-16T07:55:44;2.10;;;1.88;;
8353;SDS011;4656;48.090;11.498;2024-01-16T07:57:46;4.40;;;2.20;;
8353;SDS011;4656;48.090;11.498;2024-01-16T07:59:47;3.15;;;2.70;;
8353;SDS011;4656;48.090;11.498;2024-01-16T08:01:49;4.10;;;2.40;;
8353;SDS011;4656;48.090;11.498;2024-01-16T08:03:51;5.28;;;2.97;;
8353;SDS011;4656;48.090;11.498;2024-01-16T08:05:53;3.72;;;2.63;;
8353;SDS011;4656;48.090;11.498;2024-01-16T08:07:57;4.50;;;2.88;;
8353;SDS011;4656;48.090;11.498;2024-01-16T08:09:59;4.80;;;2.55;;
8353;SDS011;4656;48.090;11.498;2024-01-16T08:12:02;2.65;;;2.08;;
8353;SDS011;4656;48.090;11.498;2024-01-16T08:14:05;3.33;;;2.30;;
8353;SDS011;4656;48.090;11.498;2024-01-16T08:16:08;3.73;;;2.53;;
8353;SDS011;4656;48.090;11.498;2024-01-16T08:18:10;3.42;;;2.28;;
8353;SDS011;4656;48.090;11.498;2024-01-16T08:20:14;6.10;;;3.00;;
8353;SDS011;4656;48.090;11.498;2024-01-16T08:22:16;3.78;;;2.33;;
8353;SDS011;4656;48.090;11.498;2024-01-16T08:24:19;1.48;;;1.38;;
8353;SDS011;4656;48.090;11.498;2024-01-16T08:26:21;1.95;;;1.80;;
8353;SDS011;4656;48.090;11.498;2024-01-16T08:28:24;3.67;;;2.53;;
8353;SDS011;4656;48.090;11.498;2024-01-16T08:30:26;4.03;;;2.58;;
8353;SDS011;4656;48.090;11.498;2024-01-16T08:32:28;4.60;;;2.67;;
8353;SDS011;4656;48.090;11.498;2024-01-16T08:34:31;2.80;;;2.42;;
8353;SDS011;4656;48.090;11.498;2024-01-16T08:36:33;3.67;;;2.72;;
8353;SDS011;4656;48.090;11.498;2024-01-16T08:38:35;3.42;;;2.22;;
8353;SDS011;4656;48.090;11.498;2024-01-16T08:40:39;2.90;;;2.30;;
8353;SDS011;4656;48.090;11.498;2024-01-16T08:42:41;2.70;;;1.70;;
8353;SDS011;4656;48.090;11.498;2024-01-16T08:44:43;2.42;;;2.13;;
8353;SDS011;4656;48.090;11.498;2024-01-16T08:46:44;3.97;;;2.53;;
8353;SDS011;4656;48.090;11.498;2024-01-16T08:48:46;2.15;;;1.45;;
8353;SDS011;4656;48.090;11.498;2024-01-16T08:50:48;2.30;;;1.48;;
8353;SDS011;4656;48.090;11.498;2024-01-16T08:52:50;3.55;;;2.33;;
8353;SDS011;4656;48.090;11.498;2024-01-16T08:54:52;4.30;;;2.33;;
8353;SDS011;4656;48.090;11.498;2024-01-16T08:56:56;3.00;;;2.10;;
8353;SDS011;4656;48.090;11.498;2024-01-16T08:58:58;3.20;;;2.50;;
8353;SDS011;4656;48.090;11.498;2024-01-16T09:01:00;3.53;;;2.30;;
8353;SDS011;4656;48.090;11.498;2024-01-16T09:03:03;3.05;;;2.30;;
8353;SDS011;4656;48.090;11.498;2024-01-16T09:05:05;2.65;;;2.30;;
8353;SDS011;4656;48.090;11.498;2024-01-16T09:07:07;4.07;;;2.78;;
8353;SDS011;4656;48.090;11.498;2024-01-16T09:09:10;4.78;;;2.92;;
8353;SDS011;4656;48.090;11.498;2024-01-16T09:11:12;11.73;;;5.60;;
8353;SDS011;4656;48.090;11.498;2024-01-16T09:13:16;9.77;;;4.82;;
8353;SDS011;4656;48.090;11.498;2024-01-16T09:15:18;19.70;;;8.77;;
8353;SDS011;4656;48.090;11.498;2024-01-16T09:17:20;8.07;;;3.90;;
8353;SDS011;4656;48.090;11.498;2024-01-16T09:19:22;24.85;;;11.10;;
8353;SDS011;4656;48.090;11.498;2024-01-16T09:21:24;17.40;;;8.25;;
8353;SDS011;4656;48.090;11.498;2024-01-16T09:23:29;26.33;;;11.65;;
8353;SDS011;4656;48.090;11.498;2024-01-16T09:25:31;13.73;;;6.60;;
8353;SDS011;4656;48.090;11.498;2024-01-16T09:27:33;4.82;;;3.30;;
8353;SDS011;4656;48.090;11.498;2024-01-16T09:29:37;5.95;;;4.70;;
8353;SDS011;4656;48.090;11.498;2024-01-16T09:31:39;9.75;;;5.43;;
8353;SDS011;4656;48.090;11.498;2024-01-16T09:33:41;2.15;;;1.67;;
8353;SDS011;4656;48.090;11.498;2024-01-16T09:35:43;3.38;;;2.35;;
8353;SDS011;4656;48.090;11.498;2024-01-16T09:37:45;5.70;;;2.80;;
8353;SDS011;4656;48.090;11.498;2024-01-16T09:39:47;4.43;;;3.33;;
8353;SDS011;4656;48.090;11.498;2024-01-16T09:41:50;5.45;;;3.05;;
8353;SDS011;4656;48.090;11.498;2024-01-16T09:43:51;8.02;;;4.65;;
8353;SDS011;4656;48.090;11.498;2024-01-16T09:45:55;7.43;;;4.97;;
8353;SDS011;4656;48.090;11.498;2024-01-16T09:47:58;5.65;;;3.55;;
8353;SDS011;4656;48.090;11.498;2024-01-16T09:50:01;8.82;;;4.68;;
8353;SDS011;4656;48.090;11.498;2024-01-16T09:52:04;5.72;;;3.00;;
8353;SDS011;4656;48.090;11.498;2024-01-16T09:54:06;7.82;;;4.43;;
8353;SDS011;4656;48.090;11.498;2024-01-16T09:56:09;7.60;;;3.97;;
8353;SDS011;4656;48.090;11.498;2024-01-16T09:58:15;5.03;;;2.88;;
8353;SDS011;4656;48.090;11.498;2024-01-16T10:00:21;4.85;;;2.92;;
8353;SDS011;4656;48.090;11.498;2024-01-16T10:02:24;6.82;;;3.83;;
8353;SDS011;4656;48.090;11.498;2024-01-16T10:04:27;5.57;;;3.40;;
8353;SDS011;4656;48.090;11.498;2024-01-16T10:06:28;5.07;;;3.63;;
8353;SDS011;4656;48.090;11.498;2024-01-16T10:08:31;6.22;;;3.35;;
8353;SDS011;4656;48.090;11.498;2024-01-16T10:10:34;4.70;;;3.08;;
8353;SDS011;4656;48.090;11.498;2024-01-16T10:12:39;5.57;;;3.33;;
8353;SDS011;4656;48.090;11.498;2024-01-16T10:14:41;4.97;;;3.47;;
8353;SDS011;4656;48.090;11.498;2024-01-16T10:16:55;9.15;;;4.78;;
8353;SDS011;4656;48.090;11.498;2024-01-16T10:19:04;9.57;;;5.35;;
8353;SDS011;4656;48.090;11.498;2024-01-16T10:21:07;6.65;;;3.58;;
8353;SDS011;4656;48.090;11.498;2024-01-16T10:23:24;4.00;;;2.83;;
8353;SDS011;4656;48.090;11.498;2024-01-16T10:25:27;4.82;;;3.05;;
8353;SDS011;4656;48.090;11.498;2024-01-16T10:27:29;3.47;;;2.75;;
8353;SDS011;4656;48.090;11.498;2024-01-16T10:29:31;7.03;;;3.33;;
8353;SDS011;4656;48.090;11.498;2024-01-16T10:31:34;5.05;;;3.30;;
8353;SDS011;4656;48.090;11.498;2024-01-16T10:33:38;3.67;;;2.50;;
8353;SDS011;4656;48.090;11.498;2024-01-16T10:35:42;3.78;;;2.30;;
8353;SDS011;4656;48.090;11.498;2024-01-16T10:37:45;3.35;;;2.40;;
8353;SDS011;4656;48.090;11.498;2024-01-16T10:39:49;2.80;;;2.50;;
8353;SDS011;4656;48.090;11.498;2024-01-16T10:41:55;5.32;;;2.75;;
8353;SDS011;4656;48.090;11.498;2024-01-16T10:44:03;4.07;;;3.03;;
8353;SDS011;4656;48.090;11.498;2024-01-16T10:46:07;5.10;;;2.67;;
8353;SDS011;4656;48.090;11.498;2024-01-16T10:48:11;3.28;;;2.53;;
8353;SDS011;4656;48.090;11.498;2024-01-16T10:50:15;2.85;;;2.00;;
8353;SDS011;4656;48.090;11.498;2024-01-16T10:52:17;2.42;;;2.17;;
8353;SDS011;4656;48.090;11.498;2024-01-16T10:54:20;4.88;;;2.85;;
8353;SDS011;4656;48.090;11.498;2024-01-16T10:56:22;4.07;;;2.97;;
8353;SDS011;4656;48.090;11.498;2024-01-16T10:58:25;3.58;;;2.60;;
8353;SDS011;4656;48.090;11.498;2024-01-16T11:00:28;3.35;;;2.28;;
8353;SDS011;4656;48.090;11.498;2024-01-16T11:02:32;4.10;;;1.95;;
8353;SDS011;4656;48.090;11.498;2024-01-16T11:04:37;3.63;;;2.45;;
8353;SDS011;4656;48.090;11.498;2024-01-16T11:06:40;3.63;;;2.58;;
8353;SDS011;4656;48.090;11.498;2024-01-16T11:08:46;2.80;;;2.35;;
8353;SDS011;4656;48.090;11.498;2024-01-16T11:10:50;2.35;;;1.80;;
8353;SDS011;4656;48.090;11.498;2024-01-16T11:12:52;3.55;;;2.15;;
8353;SDS011;4656;48.090;11.498;2024-01-16T11:14:54;4.47;;;2.88;;
8353;SDS011;4656;48.090;11.498;2024-01-16T11:16:58;2.05;;;1.75;;
8353;SDS011;4656;48.090;11.498;2024-01-16T11:19:02;1.92;;;1.70;;
8353;SDS011;4656;48.090;11.498;2024-01-16T11:21:07;2.78;;;1.80;;
8353;SDS011;4656;48.090;11.498;2024-01-16T11:23:10;3.05;;;1.90;;
8353;SDS011;4656;48.090;11.498;2024-01-16T11:25:14;2.22;;;1.77;;
8353;SDS011;4656;48.090;11.498;2024-01-16T11:27:22;3.53;;;2.38;;
8353;SDS011;4656;48.090;11.498;2024-01-16T11:29:35;3.05;;;1.98;;
8353;SDS011;4656;48.090;11.498;2024-01-16T11:31:38;1.70;;;1.60;;
8353;SDS011;4656;48.090;11.498;2024-01-16T11:33:46;2.95;;;2.30;;
8353;SDS011;4656;48.090;11.498;2024-01-16T11:35:48;9.05;;;6.50;;
8353;SDS011;4656;48.090;11.498;2024-01-16T11:37:51;3.80;;;2.65;;
8353;SDS011;4656;48.090;11.498;2024-01-16T11:39:54;4.43;;;2.70;;
8353;SDS011;4656;48.090;11.498;2024-01-16T11:41:57;2.30;;;1.85;;
8353;SDS011;4656;48.090;11.498;2024-01-16T11:44:02;2.67;;;1.90;;
8353;SDS011;4656;48.090;11.498;2024-01-16T11:46:06;3.10;;;2.55;;
8353;SDS011;4656;48.090;11.498;2024-01-16T11:48:08;3.85;;;2.72;;
8353;SDS011;4656;48.090;11.498;2024-01-16T11:50:10;10.85;;;5.32;;
8353;SDS011;4656;48.090;11.498;2024-01-16T11:52:12;4.78;;;3.05;;
8353;SDS011;4656;48.090;11.498;2024-01-16T11:54:15;3.72;;;2.25;;
8353;SDS011;4656;48.090;11.498;2024-01-16T11:58:45;4.28;;;2.88;;
8353;SDS011;4656;48.090;11.498;2024-01-16T12:00:47;3.28;;;2.45;;
8353;SDS011;4656;48.090;11.498;2024-01-16T12:02:51;4.28;;;2.60;;
8353;SDS011;4656;48.090;11.498;2024-01-16T12:04:54;1.77;;;1.65;;
8353;SDS011;4656;48.090;11.498;2024-01-16T12:06:56;4.68;;;2.58;;
8353;SDS011;4656;48.090;11.498;2024-01-16T12:09:11;3.53;;;2.60;;
8353;SDS011;4656;48.090;11.498;2024-01-16T12:11:17;4.15;;;2.22;;
8353;SDS011;4656;48.090;11.498;2024-01-16T12:13:20;1.93;;;1.83;;
8353;SDS011;4656;48.090;11.498;2024-01-16T12:15:22;2.97;;;2.13;;
8353;SDS011;4656;48.090;11.498;2024-01-16T12:17:24;1.42;;;1.33;;
8353;SDS011;4656;48.090;11.498;2024-01-16T12:19:27;2.00;;;1.88;;
8353;SDS011;4656;48.090;11.498;2024-01-16T12:21:29;3.15;;;2.08;;
8353;SDS011;4656;48.090;11.498;2024-01-16T12:23:31;4.32;;;2.40;;
8353;SDS011;4656;48.090;11.498;2024-01-16T12:25:34;2.00;;;1.60;;
8353;SDS011;4656;48.090;11.498;2024-01-16T12:27:36;3.13;;;1.85;;
8353;SDS011;4656;48.090;11.498;2024-01-16T12:29:37;1.92;;;1.65;;
8353;SDS011;4656;48.090;11.498;2024-01-16T12:31:42;3.25;;;2.38;;
8353;SDS011;4656;48.090;11.498;2024-01-16T12:33:45;2.78;;;1.73;;